Time;durP1;ratioP1;P1;durP2;ratioP2;P2;SDS_P1;SDS_P2;PMS_P1;PMS_P2;Temp;Humidity;BMP_temperature;BMP_pressure;BME280_temperature;BME280_humidity;BME280_pressure;Samples;Min_cycle;Max_cycle;Signal;HPM_P1;HPM_P2
2022/12/02 00:02:15;;;;;;;22.60;9.90;;;;;;;1.61;84.01;101281.02;105780;1294;58119;-72
2022/12/02 00:05:14;;;;;;;21.40;10.50;;;;;;;1.62;83.91;101277.15;105732;1294;58945;-73
2022/12/02 00:08:18;;;;;;;21.40;10.10;;;;;;;1.62;84.21;101273.83;105718;1286;73935;-73
2022/12/02 00:11:30;;;;;;;22.30;11.40;;;;;;;1.62;84.60;101270.67;105705;1293;68675;-71
2022/12/02 00:14:34;;;;;;;24.20;11.40;;;;;;;1.62;84.79;101272.95;105581;1296;72806;-72
2022/12/02 00:17:22;;;;;;;24.40;11.90;;;;;;;1.64;84.71;101269.40;105714;1295;58052;-71
2022/12/02 00:20:10;;;;;;;23.10;11.20;;;;;;;1.68;84.76;101268.61;105699;1296;60074;-73
2022/12/02 00:22:58;;;;;;;24.90;12.20;;;;;;;1.71;84.90;101269.59;105810;1292;72315;-72
2022/12/02 00:25:50;;;;;;;20.70;10.80;;;;;;;1.73;84.74;101267.30;105754;1288;68991;-73
2022/12/02 00:28:38;;;;;;;22.40;11.00;;;;;;;1.73;84.88;101262.39;105714;1297;73550;-72
2022/12/02 00:31:25;;;;;;;22.40;10.00;;;;;;;1.73;84.68;101260.64;105753;1295;57984;-72
2022/12/02 00:34:13;;;;;;;21.60;10.60;;;;;;;1.73;84.82;101266.08;105783;1288;60097;-71
2022/12/02 00:37:00;;;;;;;23.90;10.50;;;;;;;1.68;84.92;101272.09;105764;1294;74956;-74
2022/12/02 00:39:48;;;;;;;26.10;11.10;;;;;;;1.67;84.99;101273.70;105803;1295;66215;-72
2022/12/02 00:42:35;;;;;;;24.80;12.20;;;;;;;1.68;85.13;101271.05;105910;1292;72476;-72
2022/12/02 00:48:30;;;;;;;23.10;11.50;;;;;;;1.73;85.01;101270.09;105957;1292;58700;-72
2022/12/02 00:51:17;;;;;;;23.60;11.20;;;;;;;1.73;85.09;101267.65;105823;1294;74655;-72
2022/12/02 00:54:07;;;;;;;23.20;11.60;;;;;;;1.74;85.15;101266.20;105936;1291;66556;-72
2022/12/02 00:56:54;;;;;;;21.00;10.30;;;;;;;1.75;85.21;101264.11;105751;1292;72358;-73
2022/12/02 00:59:42;;;;;;;20.70;9.40;;;;;;;1.74;85.18;101262.88;105809;1292;57962;-72
2022/12/02 01:02:30;;;;;;;24.00;11.40;;;;;;;1.70;85.24;101255.80;105904;1299;60104;-71
2022/12/02 01:05:18;;;;;;;23.30;11.50;;;;;;;1.67;85.26;101255.52;105917;1292;73891;-72
2022/12/02 01:08:05;;;;;;;27.30;11.90;;;;;;;1.66;85.44;101251.34;105920;1286;66763;-76
2022/12/02 01:10:54;;;;;;;25.30;11.80;;;;;;;1.66;85.51;101249.58;105915;1291;73718;-72
2022/12/02 01:13:42;;;;;;;28.10;12.60;;;;;;;1.66;85.07;101253.43;105811;1295;60081;-72
2022/12/02 01:16:30;;;;;;;26.00;11.50;;;;;;;1.64;84.69;101251.21;105949;1298;60139;-73
2022/12/02 01:19:18;;;;;;;25.80;12.20;;;;;;;1.61;84.48;101253.73;105935;1298;72126;-72
2022/12/02 01:22:06;;;;;;;28.40;11.60;;;;;;;1.58;84.57;101251.86;105935;1292;65227;-72
2022/12/02 01:24:53;;;;;;;27.10;12.20;;;;;;;1.59;84.87;101250.63;105906;1292;73457;-72
2022/12/02 01:27:41;;;;;;;27.70;12.30;;;;;;;1.59;84.58;101247.30;105929;1292;58009;-72
2022/12/02 01:30:29;;;;;;;29.60;13.70;;;;;;;1.55;84.47;101246.48;105911;1293;58995;-70
2022/12/02 01:33:16;;;;;;;31.50;13.20;;;;;;;1.51;84.70;101252.02;105923;1292;74847;-70
2022/12/02 01:36:05;;;;;;;30.60;13.40;;;;;;;1.47;84.70;101258.04;105918;1292;66806;-72
2022/12/02 01:38:52;;;;;;;31.70;14.50;;;;;;;1.48;84.73;101255.92;105916;1291;72753;-72
2022/12/02 01:41:39;;;;;;;30.00;12.30;;;;;;;1.47;84.71;101254.20;105902;1291;58499;-72
2022/12/02 01:44:28;;;;;;;33.20;13.50;;;;;;;1.48;84.81;101251.72;105821;1292;58951;-72
2022/12/02 01:47:16;;;;;;;31.80;13.10;;;;;;;1.50;84.85;101255.35;105096;1296;1014979;-72
2022/12/02 01:50:07;;;;;;;29.10;13.30;;;;;;;1.47;84.50;101255.05;105839;1299;67818;-73
2022/12/02 01:52:55;;;;;;;27.70;12.40;;;;;;;1.42;84.71;101253.23;105765;1301;73869;-73
2022/12/02 01:55:45;;;;;;;31.60;13.10;;;;;;;1.36;84.87;101245.84;105797;1295;57960;-72
2022/12/02 01:58:32;;;;;;;31.00;13.50;;;;;;;1.30;85.00;101243.35;105789;1295;59260;-71
2022/12/02 02:01:22;;;;;;;26.70;12.70;;;;;;;1.24;85.24;101238.76;104330;1297;1002662;-71
2022/12/02 02:04:11;;;;;;;34.50;13.70;;;;;;;1.21;85.72;101240.39;105793;1288;69422;-71
2022/12/02 02:06:59;;;;;;;31.80;12.90;;;;;;;1.15;86.00;101237.53;105920;1293;73508;-73
2022/12/02 02:09:47;;;;;;;28.30;11.80;;;;;;;1.09;86.39;101241.85;105794;1301;58051;-72
2022/12/02 02:12:36;;;;;;;29.80;13.80;;;;;;;1.07;86.53;101238.02;105828;1292;58685;-71
2022/12/02 02:15:24;;;;;;;34.20;15.10;;;;;;;1.04;87.02;101237.91;105791;1300;72538;-72
2022/12/02 02:18:14;;;;;;;36.50;14.30;;;;;;;0.98;87.30;101236.48;105918;1291;69051;-72
2022/12/02 02:21:02;;;;;;;33.30;14.20;;;;;;;0.95;87.55;101234.40;105736;1294;73808;-73
2022/12/02 02:23:50;;;;;;;37.70;15.20;;;;;;;0.91;87.77;101229.42;105822;1291;58131;-72
2022/12/02 02:26:38;;;;;;;39.60;16.20;;;;;;;0.92;87.78;101236.73;105829;1294;60185;-72
2022/12/02 02:29:25;;;;;;;37.60;14.00;;;;;;;0.91;87.74;101234.13;105822;1295;73790;-72
2022/12/02 02:32:14;;;;;;;24.90;11.80;;;;;;;0.89;87.96;101231.38;105917;1292;67706;-73
2022/12/02 02:35:03;;;;;;;35.60;14.70;;;;;;;0.89;88.22;101233.48;105917;1292;72324;-71
2022/12/02 02:37:53;;;;;;;31.80;13.80;;;;;;;0.90;88.11;101233.12;105664;1300;58769;-72
2022/12/02 02:40:42;;;;;;;34.30;15.10;;;;;;;0.89;88.40;101232.27;105729;1294;61562;-70
2022/12/02 02:43:31;;;;;;;33.30;13.60;;;;;;;0.79;88.49;101235.75;105013;1292;1002559;-70
2022/12/02 02:46:19;;;;;;;32.90;14.30;;;;;;;0.72;88.57;101236.25;105073;1298;1002447;-72
2022/12/02 02:49:06;;;;;;;37.00;13.70;;;;;;;0.64;88.82;101237.78;105918;1292;72733;-72
2022/12/02 02:51:54;;;;;;;31.70;13.10;;;;;;;0.60;89.02;101234.17;105816;1293;58739;-71
2022/12/02 02:54:41;;;;;;;31.70;12.70;;;;;;;0.61;89.12;101238.54;105797;1293;58968;-71
2022/12/02 02:57:30;;;;;;;37.30;14.50;;;;;;;0.65;89.03;101235.32;105799;1286;73789;-71
2022/12/02 03:00:21;;;;;;;35.20;14.40;;;;;;;0.71;89.17;101234.70;105904;1291;69174;-71
2022/12/02 03:03:11;;;;;;;34.60;14.00;;;;;;;0.77;89.06;101234.39;105721;1295;72545;-71
2022/12/02 03:06:03;;;;;;;34.00;14.20;;;;;;;0.80;88.92;101230.14;105824;1299;58021;-70
2022/12/02 03:08:52;;;;;;;29.70;12.60;;;;;;;0.83;88.76;101231.49;105777;1294;58729;-71
2022/12/02 03:11:42;;;;;;;31.70;13.50;;;;;;;0.84;88.67;101230.07;105805;1295;74862;-72
2022/12/02 03:14:29;;;;;;;34.70;12.70;;;;;;;0.83;88.64;101233.23;105823;1299;67200;-71
2022/12/02 03:17:17;;;;;;;36.70;15.00;;;;;;;0.83;88.62;101231.33;105903;1298;74099;-72
2022/12/02 03:20:05;;;;;;;36.40;14.60;;;;;;;0.83;88.66;101235.68;105777;1294;58017;-72
2022/12/02 03:22:53;;;;;;;33.60;11.10;;;;;;;0.77;88.70;101236.15;105814;1286;59347;-72
2022/12/02 03:25:41;;;;;;;37.80;15.60;;;;;;;0.74;88.63;101234.81;105879;1284;73631;-70
2022/12/02 03:28:29;;;;;;;34.10;13.60;;;;;;;0.74;88.75;101239.36;105179;1289;1002897;-71
2022/12/02 03:31:17;;;;;;;33.40;14.20;;;;;;;0.75;88.72;101238.29;105901;1291;73919;-70
2022/12/02 03:34:07;;;;;;;38.40;16.10;;;;;;;0.69;88.64;101237.86;105816;1301;58054;-71
2022/12/02 03:36:56;;;;;;;37.50;15.70;;;;;;;0.63;88.78;101236.06;105208;1286;1002580;-69
2022/12/02 03:39:44;;;;;;;34.90;14.80;;;;;;;0.59;89.08;101232.98;105917;1291;74649;-69
2022/12/02 03:42:32;;;;;;;34.00;15.00;;;;;;;0.53;89.14;101232.56;105897;1292;68856;-70
2022/12/02 03:45:20;;;;;;;38.60;14.80;;;;;;;0.45;89.35;101232.34;105174;1293;1002403;-70
2022/12/02 03:48:09;;;;;;;34.00;13.90;;;;;;;0.44;89.67;101241.09;105747;1295;57989;-70
2022/12/02 03:50:57;;;;;;;38.10;15.00;;;;;;;0.43;89.66;101235.17;105897;1298;59611;-70
2022/12/02 03:53:45;;;;;;;36.30;13.80;;;;;;;0.43;89.68;101233.08;105894;1288;75026;-70
2022/12/02 03:56:41;;;;;;;34.90;15.20;;;;;;;0.43;89.65;101232.72;105925;1291;66680;-70
2022/12/02 03:59:28;;;;;;;38.30;15.50;;;;;;;0.43;89.47;101229.94;105746;1292;70091;-71
2022/12/02 04:02:16;;;;;;;36.30;15.40;;;;;;;0.41;89.60;101230.31;105908;1291;58042;-71
2022/12/02 04:05:04;;;;;;;33.50;13.70;;;;;;;0.38;89.64;101230.02;105939;1284;59190;-72
2022/12/02 04:07:52;;;;;;;41.80;15.20;;;;;;;0.37;89.79;101224.10;105724;1295;74812;-70
2022/12/02 04:10:39;;;;;;;37.60;14.90;;;;;;;0.41;89.96;101222.98;105895;1292;67537;-71
2022/12/02 04:13:27;;;;;;;36.80;14.40;;;;;;;0.47;89.86;101226.55;105912;1292;70605;-75
2022/12/02 04:16:15;;;;;;;40.30;16.40;;;;;;;0.49;89.55;101226.68;105911;1292;58872;-72
2022/12/02 04:19:03;;;;;;;39.40;15.20;;;;;;;0.50;89.30;101221.43;105815;1294;61149;-71
2022/12/02 04:21:51;;;;;;;34.50;13.80;;;;;;;0.53;89.64;101216.85;105916;1292;72767;-72
2022/12/02 04:24:38;;;;;;;34.50;14.50;;;;;;;0.55;89.10;101221.88;105921;1285;66462;-70
2022/12/02 04:27:25;;;;;;;33.40;13.40;;;;;;;0.51;89.02;101222.98;105898;1292;72477;-70
2022/12/02 04:30:13;;;;;;;34.50;14.50;;;;;;;0.46;89.14;101222.73;105054;1295;1002163;-70
2022/12/02 04:33:02;;;;;;;37.60;14.60;;;;;;;0.44;89.30;101226.95;105909;1292;61161;-72
2022/12/02 04:35:49;;;;;;;40.50;15.60;;;;;;;0.42;89.26;101220.36;105920;1291;74633;-73
2022/12/02 04:38:37;;;;;;;38.30;14.50;;;;;;;0.42;89.42;101223.15;105923;1293;67515;-73
2022/12/02 04:41:28;;;;;;;39.50;14.80;;;;;;;0.45;89.47;101222.38;105147;1292;1002263;-72
2022/12/02 04:44:16;;;;;;;34.60;13.50;;;;;;;0.49;89.32;101221.10;105910;1292;57914;-71
2022/12/02 04:47:04;;;;;;;33.70;13.90;;;;;;;0.54;89.48;101220.31;105928;1292;60449;-72
2022/12/02 04:49:52;;;;;;;33.20;13.50;;;;;;;0.56;89.14;101222.20;105897;1295;74246;-70
2022/12/02 04:52:39;;;;;;;32.40;13.40;;;;;;;0.56;89.01;101220.10;105925;1291;67795;-73
2022/12/02 04:55:27;;;;;;;32.90;13.10;;;;;;;0.58;89.07;101220.77;105920;1285;72580;-71
2022/12/02 04:58:15;;;;;;;36.40;14.50;;;;;;;0.56;88.81;101221.69;105924;1292;58024;-72
2022/12/02 05:01:03;;;;;;;38.00;15.40;;;;;;;0.54;88.92;101221.55;105933;1291;58556;-72
2022/12/02 05:03:51;;;;;;;37.10;15.30;;;;;;;0.55;88.97;101224.67;105905;1292;72539;-70
2022/12/02 05:06:39;;;;;;;36.40;14.60;;;;;;;0.56;88.79;101225.70;105916;1285;68825;-71
2022/12/02 05:09:26;;;;;;;37.70;14.80;;;;;;;0.55;88.79;101222.39;105906;1292;73421;-71
2022/12/02 05:12:14;;;;;;;37.20;14.20;;;;;;;0.53;88.94;101221.91;105904;1291;58573;-71
2022/12/02 05:15:03;;;;;;;34.20;12.50;;;;;;;0.53;89.06;101222.08;105938;1292;60004;-71
2022/12/02 05:17:50;;;;;;;35.60;14.80;;;;;;;0.54;89.14;101223.29;105808;1285;75068;-71
2022/12/02 05:20:37;;;;;;;29.80;12.20;;;;;;;0.56;89.14;101223.61;105911;1292;68631;-71
2022/12/02 05:23:25;;;;;;;36.20;13.30;;;;;;;0.56;89.09;101220.98;105911;1286;73458;-71
2022/12/02 05:26:13;;;;;;;38.30;14.70;;;;;;;0.54;88.90;101226.60;105793;1295;59544;-71
2022/12/02 05:29:00;;;;;;;39.00;15.40;;;;;;;0.55;88.90;101223.27;105882;1292;60355;-71
2022/12/02 05:31:48;;;;;;;38.00;14.90;;;;;;;0.58;88.93;101218.86;105913;1291;73805;-72
2022/12/02 05:34:36;;;;;;;36.90;15.10;;;;;;;0.61;88.93;101217.06;105929;1288;66402;-72
2022/12/02 05:37:23;;;;;;;33.70;13.00;;;;;;;0.62;88.78;101218.26;105905;1291;70538;-71
2022/12/02 05:40:11;;;;;;;34.90;14.80;;;;;;;0.62;88.50;101221.23;105907;1299;57983;-72
2022/12/02 05:43:15;;;;;;;35.60;15.00;;;;;;;0.60;88.34;101220.76;105846;1295;60136;-72
2022/12/02 05:46:12;;;;;;;38.00;15.90;;;;;;;0.55;88.59;101222.73;105770;1292;73578;-72
2022/12/02 05:49:00;;;;;;;37.10;13.90;;;;;;;0.50;88.73;101223.00;105713;1292;151586;-72
2022/12/02 05:51:56;;;;;;;37.80;14.50;;;;;;;0.48;88.74;101219.20;105788;1293;72333;-72
2022/12/02 05:54:43;;;;;;;36.30;14.70;;;;;;;0.43;88.87;101221.55;105744;1295;58023;-72
2022/12/02 05:57:31;;;;;;;36.90;14.60;;;;;;;0.40;89.06;101223.00;105909;1286;61104;-71
2022/12/02 06:00:22;;;;;;;33.70;14.20;;;;;;;0.41;89.03;101221.95;105806;1293;72491;-73
2022/12/02 06:03:18;;;;;;;37.90;14.00;;;;;;;0.41;89.20;101226.14;105918;1292;68992;-71
2022/12/02 06:06:09;;;;;;;34.50;13.10;;;;;;;0.42;89.32;101219.13;105750;1295;72851;-71
2022/12/02 06:08:57;;;;;;;36.20;14.00;;;;;;;0.40;89.24;101224.23;105794;1294;57927;-73
2022/12/02 06:11:46;;;;;;;35.20;14.30;;;;;;;0.36;89.47;101233.20;105059;1291;1002291;-72
2022/12/02 06:14:34;;;;;;;34.40;13.70;;;;;;;0.30;89.35;101230.67;105752;1291;73605;-71
2022/12/02 06:17:22;;;;;;;36.40;14.00;;;;;;;0.26;89.47;101233.36;105880;1290;66522;-74
2022/12/02 06:20:22;;;;;;;35.40;12.10;;;;;;;0.26;89.76;101232.83;105867;1291;74143;-73
2022/12/02 06:23:17;;;;;;;41.20;15.20;;;;;;;0.27;89.74;101231.95;105761;1299;58482;-72
2022/12/02 06:26:05;;;;;;;35.80;13.80;;;;;;;0.28;89.81;101234.73;105633;1295;61472;-73
2022/12/02 06:29:02;;;;;;;37.30;13.90;;;;;;;0.27;89.74;101234.57;105875;1291;74692;-72
2022/12/02 06:31:49;;;;;;;35.90;14.70;;;;;;;0.23;89.56;101232.70;105784;1295;68655;-73
2022/12/02 06:34:42;;;;;;;36.00;13.70;;;;;;;0.18;89.85;101236.30;105112;1285;1015176;-72
2022/12/02 06:37:30;;;;;;;37.90;15.10;;;;;;;0.16;90.00;101242.05;105743;1291;57937;-73
2022/12/02 06:40:31;;;;;;;36.20;13.70;;;;;;;0.16;90.17;101248.86;105856;1292;61542;-72
2022/12/02 06:43:26;;;;;;;42.60;15.40;;;;;;;0.15;90.19;101249.95;105714;1294;75033;-72
2022/12/02 06:46:19;;;;;;;39.30;15.40;;;;;;;0.14;90.41;101251.36;105709;1291;67893;-73
2022/12/02 06:49:29;;;;;;;39.40;15.10;;;;;;;0.10;90.39;101257.00;105785;1295;72596;-71
2022/12/02 06:52:21;;;;;;;33.80;12.90;;;;;;;0.10;90.42;101258.23;105742;1295;58041;-74
2022/12/02 06:55:21;;;;;;;42.30;15.90;;;;;;;0.11;90.70;101256.63;105702;1291;58909;-72
2022/12/02 06:58:29;;;;;;;42.10;16.70;;;;;;;0.07;90.56;101257.58;105685;1285;74112;-74
2022/12/02 07:01:32;;;;;;;43.70;16.00;;;;;;;0.07;90.81;101260.73;105694;1294;66244;-71
2022/12/02 07:04:44;;;;;;;35.10;14.60;;;;;;;0.05;90.79;101260.56;105833;1291;72318;-72
2022/12/02 07:07:34;;;;;;;42.20;15.70;;;;;;;0.04;90.87;101262.50;105824;1291;58701;-74
2022/12/02 07:10:28;;;;;;;40.00;14.60;;;;;;;0.04;91.07;101258.48;105846;1300;60363;-70
2022/12/02 07:13:18;;;;;;;36.60;14.20;;;;;;;0.08;91.34;101263.32;105741;1291;73749;-71
2022/12/02 07:16:35;;;;;;;46.50;17.00;;;;;;;0.02;91.57;101261.32;105840;1291;68722;-71
2022/12/02 07:19:37;;;;;;;43.60;15.10;;;;;;;0.02;91.67;101262.55;105717;1292;72746;-73
2022/12/02 07:22:40;;;;;;;40.40;15.90;;;;;;;0.02;91.75;101266.91;105716;1292;58060;-72
2022/12/02 07:25:49;;;;;;;47.20;16.50;;;;;;;-0.02;91.62;101271.66;105845;1293;61896;-74
2022/12/02 07:28:43;;;;;;;45.40;16.50;;;;;;;-0.02;91.99;101273.77;105691;1292;74867;-74
2022/12/02 07:31:31;;;;;;;41.20;15.50;;;;;;;0.01;91.98;101271.62;105730;1295;66270;-72
2022/12/02 07:34:19;;;;;;;43.80;16.40;;;;;;;0.00;91.89;101271.46;105711;1292;70213;-70
2022/12/02 07:37:06;;;;;;;37.90;14.00;;;;;;;0.01;92.19;101269.71;105830;1292;58080;-72
2022/12/02 07:39:54;;;;;;;43.10;15.70;;;;;;;-0.03;92.29;101272.73;105867;1291;58745;-71
2022/12/02 07:42:42;;;;;;;51.10;17.00;;;;;;;-0.07;92.32;101276.10;105829;1284;73911;-74
2022/12/02 07:45:30;;;;;;;45.90;17.40;;;;;;;-0.11;92.28;101271.27;105700;1291;66600;-71
2022/12/02 07:48:17;;;;;;;51.70;17.00;;;;;;;-0.13;92.65;101263.79;105842;1291;72419;-71
2022/12/02 07:51:05;;;;;;;41.30;14.20;;;;;;;-0.13;92.91;101270.95;105840;1292;58115;-72
2022/12/02 07:53:53;;;;;;;41.80;15.60;;;;;;;-0.16;93.21;101272.73;105857;1300;60221;-73
2022/12/02 07:56:41;;;;;;;38.80;13.40;;;;;;;-0.17;93.14;101270.48;105094;1292;1002135;-69
2022/12/02 07:59:29;;;;;;;42.70;15.90;;;;;;;-0.22;93.47;101268.64;105854;1291;67634;-72
2022/12/02 08:02:17;;;;;;;40.40;15.00;;;;;;;-0.26;93.50;101268.00;105091;1291;1002624;-73
2022/12/02 08:05:06;;;;;;;64.10;25.00;;;;;;;-0.23;93.91;101266.55;105832;1291;58444;-71
2022/12/02 08:07:54;;;;;;;42.30;14.20;;;;;;;-0.19;93.51;101267.01;105752;1287;61167;-73
2022/12/02 08:10:41;;;;;;;41.60;14.40;;;;;;;-0.16;93.52;101265.23;105766;1292;73923;-70
2022/12/02 08:13:29;;;;;;;40.00;15.00;;;;;;;-0.14;93.19;101269.04;105850;1292;65660;-70
2022/12/02 08:16:17;;;;;;;35.80;14.00;;;;;;;-0.11;93.23;101270.91;105845;1291;74124;-70
2022/12/02 08:19:04;;;;;;;46.30;16.20;;;;;;;-0.19;93.27;101274.70;105807;1292;58100;-72
2022/12/02 08:21:52;;;;;;;43.70;17.00;;;;;;;-0.27;93.65;101278.12;105827;1284;60091;-74
2022/12/02 08:24:40;;;;;;;39.90;14.80;;;;;;;-0.31;93.69;101280.10;105820;1292;73594;-72
2022/12/02 08:27:28;;;;;;;41.70;15.50;;;;;;;-0.33;93.73;101286.74;105840;1284;67713;-73
2022/12/02 08:30:16;;;;;;;39.70;14.50;;;;;;;-0.34;93.88;101283.27;105837;1292;70296;-71
2022/12/02 08:33:03;;;;;;;37.90;13.70;;;;;;;-0.36;93.90;101283.46;105802;1288;58054;-71
2022/12/02 08:35:51;;;;;;;40.70;13.40;;;;;;;-0.39;93.95;101283.87;105715;1290;58884;-71
2022/12/02 08:38:38;;;;;;;37.10;14.90;;;;;;;-0.44;93.83;101279.38;105864;1292;73567;-72
2022/12/02 08:41:26;;;;;;;43.90;14.60;;;;;;;-0.42;94.02;101278.32;105675;1288;68769;-72
2022/12/02 08:44:13;;;;;;;41.50;15.30;;;;;;;-0.34;94.44;101286.92;105848;1285;73880;-74
2022/12/02 08:47:02;;;;;;;43.00;15.40;;;;;;;-0.26;93.72;101288.40;105820;1291;58452;-72
2022/12/02 08:49:49;;;;;;;41.20;16.00;;;;;;;-0.22;93.63;101287.48;105695;1293;59039;-73
2022/12/02 08:52:37;;;;;;;38.60;13.70;;;;;;;-0.20;93.25;101288.66;105886;1292;72752;-73
2022/12/02 08:55:26;;;;;;;32.50;12.30;;;;;;;-0.17;93.55;101292.45;105925;1293;67557;-72
2022/12/02 08:58:13;;;;;;;40.70;14.50;;;;;;;-0.17;93.17;101294.03;105748;1288;73896;-73
2022/12/02 09:01:01;;;;;;;44.80;14.50;;;;;;;-0.18;92.87;101297.88;105841;1290;58538;-71
2022/12/02 09:03:49;;;;;;;35.00;13.20;;;;;;;-0.20;92.84;101286.23;105694;1295;60345;-71
2022/12/02 09:06:37;;;;;;;39.00;13.90;;;;;;;-0.18;93.18;101292.83;105845;1300;71472;-73
2022/12/02 09:09:25;;;;;;;39.90;13.70;;;;;;;-0.14;93.05;101298.00;105708;1287;66719;-73
2022/12/02 09:12:12;;;;;;;31.10;11.40;;;;;;;-0.11;92.81;101293.61;105840;1291;72501;-72
2022/12/02 09:15:00;;;;;;;33.80;13.50;;;;;;;-0.12;92.49;101282.09;105841;1292;58075;-72
2022/12/02 09:17:48;;;;;;;38.80;14.90;;;;;;;-0.19;92.58;101272.25;105892;1299;59059;-72
2022/12/02 09:20:36;;;;;;;35.30;13.20;;;;;;;-0.19;92.66;101273.83;105895;1292;73816;-73
2022/12/02 09:23:24;;;;;;;34.20;12.60;;;;;;;-0.18;92.64;101269.97;105920;1291;66251;-71
2022/12/02 09:26:11;;;;;;;35.50;14.20;;;;;;;-0.17;92.54;101267.86;105882;1291;73049;-73
2022/12/02 09:28:59;;;;;;;33.50;13.40;;;;;;;-0.11;92.55;101262.71;105869;1285;58537;-71
2022/12/02 09:31:46;;;;;;;36.20;12.80;;;;;;;-0.04;92.16;101258.96;105785;1295;60556;-71
2022/12/02 09:34:34;;;;;;;27.30;9.80;;;;;;;-0.01;91.49;101258.56;105873;1292;71512;-72
2022/12/02 09:37:24;;;;;;;30.50;11.70;;;;;;;0.05;91.34;101262.84;105901;1292;68662;-73
2022/12/02 09:40:13;;;;;;;28.70;11.20;;;;;;;0.17;91.27;101268.24;105874;1286;72322;-72
2022/12/02 09:43:03;;;;;;;31.20;12.30;;;;;;;0.25;90.76;101271.61;105779;1292;58435;-74
2022/12/02 09:45:51;;;;;;;29.10;12.30;;;;;;;0.29;90.15;101272.41;105007;1285;1002722;-71
2022/12/02 09:48:39;;;;;;;31.20;12.30;;;;;;;0.31;89.87;101273.77;105147;1285;1002888;-72
2022/12/02 09:51:26;;;;;;;36.10;12.40;;;;;;;0.30;89.48;101273.28;105892;1292;66638;-71
2022/12/02 09:54:15;;;;;;;30.00;11.90;;;;;;;0.26;89.38;101266.16;105876;1291;72541;-72
2022/12/02 09:57:12;;;;;;;31.00;11.80;;;;;;;0.28;89.80;101263.70;105776;1286;58012;-71
2022/12/02 10:00:06;;;;;;;25.70;10.10;;;;;;;0.31;89.58;101264.88;105869;1293;60066;-71
2022/12/02 10:02:55;;;;;;;30.80;11.80;;;;;;;0.36;89.91;101266.72;105782;1294;73550;-72
2022/12/02 10:05:43;;;;;;;27.70;10.80;;;;;;;0.41;89.52;101268.38;105792;1288;65560;-72
2022/12/02 10:08:31;;;;;;;33.10;12.30;;;;;;;0.43;89.37;101266.42;105784;1287;72509;-71
2022/12/02 10:11:29;;;;;;;30.70;12.70;;;;;;;0.42;88.38;101267.50;105877;1292;58496;-72
2022/12/02 10:14:16;;;;;;;35.50;13.40;;;;;;;0.38;88.41;101271.94;105728;1292;61609;-72
2022/12/02 10:17:30;;;;;;;33.20;12.80;;;;;;;0.34;88.65;101275.65;105788;1292;73985;-71
2022/12/02 10:20:25;;;;;;;24.40;10.20;;;;;;;0.36;89.14;101272.83;105779;1292;67532;-72
2022/12/02 10:23:22;;;;;;;27.90;10.30;;;;;;;0.39;89.06;101268.23;105763;1300;73780;-73
2022/12/02 10:26:13;;;;;;;33.00;13.70;;;;;;;0.40;88.51;101266.48;105012;1293;1002162;-74
2022/12/02 10:29:07;;;;;;;33.20;13.40;;;;;;;0.40;88.39;101268.58;105891;1292;60223;-72
2022/12/02 10:32:19;;;;;;;34.10;13.60;;;;;;;0.38;88.05;101267.92;105864;1292;73662;-73
2022/12/02 10:35:09;;;;;;;32.50;11.90;;;;;;;0.39;88.30;101264.06;105746;1294;68809;-73
2022/12/02 10:37:57;;;;;;;31.60;11.60;;;;;;;0.40;87.92;101263.15;105722;1295;74092;-74
2022/12/02 10:40:44;;;;;;;29.90;11.70;;;;;;;0.33;87.86;101259.77;105840;1292;58043;-73
2022/12/02 10:43:32;;;;;;;34.50;13.50;;;;;;;0.31;87.69;101263.98;105832;1287;61413;-73
2022/12/02 10:46:21;;;;;;;31.20;13.00;;;;;;;0.28;87.56;101258.98;105875;1286;74871;-72
2022/12/02 10:49:24;;;;;;;31.60;12.90;;;;;;;0.17;87.71;101259.01;105749;1292;68438;-72
2022/12/02 10:52:13;;;;;;;30.60;11.50;;;;;;;0.10;87.84;101258.05;105873;1285;72314;-74
2022/12/02 10:55:02;;;;;;;30.00;11.70;;;;;;;0.07;88.16;101258.09;105705;1295;58556;-72
2022/12/02 10:57:50;;;;;;;28.20;11.80;;;;;;;0.09;88.13;101258.77;104936;1291;1002667;-71
2022/12/02 11:00:38;;;;;;;26.90;10.40;;;;;;;0.19;88.51;101253.90;105845;1292;73243;-73
2022/12/02 11:03:31;;;;;;;28.90;10.80;;;;;;;0.31;88.15;101249.34;105827;1300;69005;-72
2022/12/02 11:06:20;;;;;;;29.70;10.20;;;;;;;0.30;87.17;101245.69;105830;1288;72445;-74
2022/12/02 11:09:21;;;;;;;32.80;13.40;;;;;;;0.27;87.35;101241.73;105815;1291;58172;-75
2022/12/02 11:12:53;;;;;;;28.50;10.40;;;;;;;0.25;87.41;101238.79;105779;1295;58863;-70
2022/12/02 11:15:49;;;;;;;28.40;12.50;;;;;;;0.29;87.42;101235.24;105797;1287;74704;-70
2022/12/02 11:18:37;;;;;;;31.40;12.50;;;;;;;0.29;86.58;101236.11;105888;1299;67607;-72
2022/12/02 11:21:29;;;;;;;34.40;13.50;;;;;;;0.27;86.80;101239.98;105825;1292;72337;-75
2022/12/02 11:24:22;;;;;;;31.40;13.10;;;;;;;0.24;87.00;101245.98;105888;1292;57987;-76
2022/12/02 11:27:10;;;;;;;35.50;13.90;;;;;;;0.13;86.67;101255.55;105916;1290;58913;-76
2022/12/02 11:30:05;;;;;;;27.30;10.90;;;;;;;0.03;87.15;101255.54;105699;1289;74898;-75
2022/12/02 11:32:53;;;;;;;33.40;13.10;;;;;;;-0.07;87.48;101254.63;105864;1292;68328;-72
2022/12/02 11:36:13;;;;;;;29.50;11.40;;;;;;;-0.12;87.76;101250.86;105827;1291;73555;-74
2022/12/02 11:39:06;;;;;;;27.90;10.40;;;;;;;-0.20;88.24;101244.70;105194;1300;58068;-72
2022/12/02 11:41:57;;;;;;;33.00;12.10;;;;;;;-0.26;88.42;101244.78;105182;1300;61318;-70
2022/12/02 11:44:45;;;;;;;25.90;9.80;;;;;;;-0.26;88.83;101239.04;105176;1293;74922;-68
2022/12/02 11:47:33;;;;;;;30.40;11.40;;;;;;;-0.22;88.92;101234.61;105127;1303;67596;-68
2022/12/02 11:50:38;;;;;;;29.40;12.30;;;;;;;-0.15;88.65;101229.98;105086;1299;71146;-71
2022/12/02 11:53:26;;;;;;;25.10;10.50;;;;;;;-0.10;88.27;101226.05;104954;1294;59606;-68
2022/12/02 11:56:17;;;;;;;28.70;10.30;;;;;;;-0.06;87.90;101223.38;105208;1300;60142;-72
2022/12/02 11:59:25;;;;;;;25.10;10.30;;;;;;;0.02;87.99;101222.23;104270;1297;1002141;-71
2022/12/02 12:02:17;;;;;;;26.10;9.80;;;;;;;0.11;87.79;101219.46;105178;1300;67649;-72
2022/12/02 12:05:06;;;;;;;26.90;9.70;;;;;;;0.18;87.36;101219.52;105206;1299;72661;-72
2022/12/02 12:07:54;;;;;;;28.10;10.00;;;;;;;0.26;87.26;101219.58;105210;1300;58532;-73
2022/12/02 12:11:14;;;;;;;23.40;10.30;;;;;;;0.32;86.80;101216.86;105120;1308;60052;-73
2022/12/02 12:14:12;;;;;;;27.60;9.70;;;;;;;0.32;86.23;101217.20;105194;1293;74703;-71
2022/12/02 12:17:28;;;;;;;27.00;10.00;;;;;;;0.38;86.63;101220.08;105919;1298;67863;-74
2022/12/02 12:20:16;;;;;;;26.50;10.20;;;;;;;0.42;86.21;101218.27;105992;1292;71104;-71
2022/12/02 12:23:40;;;;;;;25.40;9.50;;;;;;;0.48;86.33;101218.31;105980;1284;58061;-73
2022/12/02 12:26:33;;;;;;;21.50;8.80;;;;;;;0.53;85.40;101217.19;105940;1291;60040;-73
2022/12/02 12:29:27;;;;;;;24.20;9.70;;;;;;;0.53;84.95;101218.95;105870;1294;73807;-72
2022/12/02 12:32:14;;;;;;;25.80;10.10;;;;;;;0.49;84.82;101218.64;105735;1292;67960;-72
2022/12/02 12:35:01;;;;;;;23.50;9.70;;;;;;;0.43;84.41;101221.73;105105;1298;1002810;-72
2022/12/02 12:37:49;;;;;;;22.80;9.50;;;;;;;0.38;85.00;101223.74;105825;1292;58505;-74
2022/12/02 12:40:36;;;;;;;24.70;10.50;;;;;;;0.38;85.33;101225.48;105567;1292;60051;-74
2022/12/02 12:43:24;;;;;;;27.30;9.20;;;;;;;0.42;85.38;101222.27;105841;1294;72677;-76
2022/12/02 12:46:12;;;;;;;28.50;9.70;;;;;;;0.47;85.41;101221.13;105857;1291;66392;-75
2022/12/02 12:49:00;;;;;;;20.80;9.40;;;;;;;0.48;85.09;101224.08;105882;1292;72735;-74
2022/12/02 12:51:48;;;;;;;25.80;10.50;;;;;;;0.45;84.65;101226.75;105736;1295;58026;-76
2022/12/02 12:54:36;;;;;;;23.20;9.70;;;;;;;0.39;84.67;101223.20;105884;1292;60338;-74
2022/12/02 12:57:23;;;;;;;24.30;9.00;;;;;;;0.31;84.56;101220.02;105761;1295;72476;-76